Batchtown, IL

1:40 PM CST on December 07, 2016 (GMT -0600)
| | Change Station

Elev -9999 ft 0.00 °N, 0.00 °E | Updated

Cloudy
Cloudy
33 °F
Feels Like 28 °F
N
7
Wind Variable Wind from WNW
Gusts mph

Today
High -- | Low -- °F
--% Chance of Precip.
Yesterday
High -- | Low -- °F
Precip. -- in
Pressure 30.24 in
Visibility 10.0 miles
Clouds Overcast 10000 ft
Windchill 28 °F
Dew Point 17 °F
Humidity 51%
Rainfall --
Snow Depth Not available.
7:08 AM 4:40 PM
First Quarter, 55% visible
METAR KSET 071854Z AUTO 28009KT 10SM OVC100 02/M07 A3023 RMK AO2 SLP240 T00221072
Pressure 30.24 in
Visibility 10.0 miles
Clouds Overcast 10000 ft
Windchill 28 °F
Dew Point 17 °F
Humidity 51%
Rainfall --
Snow Depth Not available.
7:08 AM 4:40 PM
First Quarter, 55% visible
METAR KSET 071854Z AUTO 28009KT 10SM OVC100 02/M07 A3023 RMK AO2 SLP240 T00221072

10-Day Weather Forecast

Almanac

Astronomy

Dec. 07, 2016 Rise Set
Actual Time
Civil Twilight
Nautical Twilight
Astronomical Twilight
Moon
Length of Visible Light
Length of Day
Tomorrow will be .
, % of the Moon is Illuminated

Today's Extremes

State Highs State Lows

Community

WunderPhotos

Upload Photos

1,956,164 photos uploaded!

WunderBlog® & News

Nearby

Air Quality

  Air Quality AQ Index Pollutant
Not available.

Snow Depth

Station Depth Elevation

Earthquake Activity

City Distance Mag. Time & Date
Minimum magnitude displayed is 2.5.

Coastal Water Temperatures

Place Temperature

Stations

Nearby Weather Stations

Station Location Temp. Windchill Dew Point Humidity Wind Precip. Elev Updated Type
                   

Watches & Warnings

There are currently no watches in effect.